createdAt,value
2023-05-14T00:02:11.857Z,12.10
2023-05-14T00:04:41.097Z,12.00
2023-05-14T00:07:10.176Z,11.90
2023-05-14T00:09:38.992Z,12.00
2023-05-14T00:12:07.195Z,11.90
2023-05-14T00:14:34.929Z,11.80
2023-05-14T00:17:02.924Z,11.80
2023-05-14T00:19:30.638Z,11.70
2023-05-14T00:21:59.638Z,11.60
2023-05-14T00:24:27.647Z,11.50
2023-05-14T00:26:55.442Z,11.40
2023-05-14T00:29:23.133Z,11.40
2023-05-14T00:31:50.934Z,11.30
2023-05-14T00:34:18.760Z,11.40
2023-05-14T00:36:46.496Z,11.30
2023-05-14T00:39:15.728Z,11.20
2023-05-14T00:41:43.423Z,11.20
2023-05-14T00:44:11.176Z,11.20
2023-05-14T00:46:38.986Z,11.10
2023-05-14T00:49:06.821Z,11.10
2023-05-14T00:51:34.922Z,11.10
2023-05-14T00:54:03.130Z,11.00
2023-05-14T00:56:32.696Z,11.00
2023-05-14T00:59:00.811Z,11.10
2023-05-14T01:01:28.834Z,11.10
2023-05-14T01:03:57.829Z,11.20
2023-05-14T01:06:36.443Z,11.20
2023-05-14T01:09:09.726Z,11.20
2023-05-14T01:11:44.944Z,11.10
2023-05-14T01:14:17.400Z,11.10
2023-05-14T01:16:48.014Z,11.20
2023-05-14T01:19:24.176Z,11.20
2023-05-14T01:21:53.190Z,11.20
2023-05-14T01:24:20.981Z,11.20
2023-05-14T01:26:48.683Z,11.20
2023-05-14T01:29:22.406Z,11.20
2023-05-14T01:31:52.260Z,11.20
2023-05-14T01:34:23.629Z,11.20
2023-05-14T01:36:53.934Z,11.20
2023-05-14T01:39:22.504Z,11.20
2023-05-14T01:41:50.703Z,11.10
2023-05-14T01:44:19.908Z,11.00
2023-05-14T01:46:47.613Z,11.10
2023-05-14T01:49:16.038Z,11.10
2023-05-14T01:51:43.725Z,11.00
2023-05-14T01:54:12.770Z,11.00
2023-05-14T01:56:40.474Z,11.00
2023-05-14T01:59:08.211Z,10.90
2023-05-14T02:01:36.029Z,10.80
2023-05-14T02:04:04.403Z,10.80
2023-05-14T02:06:32.718Z,10.80
2023-05-14T02:09:01.535Z,10.80
2023-05-14T02:11:30.617Z,10.80
2023-05-14T02:13:58.320Z,10.80
2023-05-14T02:16:26.224Z,10.80
2023-05-14T02:18:54.198Z,10.80
2023-05-14T02:21:21.955Z,10.90
2023-05-14T02:23:50.160Z,10.90
2023-05-14T02:26:17.893Z,10.90
2023-05-14T02:28:46.939Z,10.80
2023-05-14T02:31:14.703Z,10.80
2023-05-14T02:33:42.949Z,10.80
2023-05-14T02:36:10.660Z,10.80
2023-05-14T02:38:38.789Z,10.80
2023-05-14T02:41:06.690Z,10.80
2023-05-14T02:43:34.386Z,10.80
2023-05-14T02:46:03.623Z,10.80
2023-05-14T02:48:31.294Z,10.80
2023-05-14T02:50:59.102Z,10.80
2023-05-14T02:53:26.750Z,10.70
2023-05-14T02:55:54.477Z,10.70
2023-05-14T02:58:25.760Z,10.70
2023-05-14T03:00:57.203Z,10.70
2023-05-14T03:03:26.923Z,10.80
2023-05-14T03:05:55.191Z,10.80
2023-05-14T03:08:22.968Z,10.80
2023-05-14T03:10:50.700Z,10.90
2023-05-14T03:13:20.499Z,10.90
2023-05-14T03:15:48.543Z,11.00
2023-05-14T03:18:16.292Z,11.00
2023-05-14T03:20:45.366Z,11.10
2023-05-14T03:23:13.351Z,11.20
2023-05-14T03:25:41.172Z,11.30
2023-05-14T03:28:09.697Z,11.30
2023-05-14T03:30:37.819Z,11.30
2023-05-14T03:33:05.832Z,11.40
2023-05-14T03:35:33.978Z,11.40
2023-05-14T03:38:03.057Z,11.50
2023-05-14T03:40:30.947Z,11.50
2023-05-14T03:42:58.674Z,11.50
2023-05-14T03:45:26.830Z,11.60
2023-05-14T03:47:54.603Z,11.50
2023-05-14T03:50:25.348Z,11.50
2023-05-14T03:52:53.448Z,11.50
2023-05-14T03:55:22.752Z,11.50
2023-05-14T03:57:50.638Z,11.50
2023-05-14T04:00:19.651Z,11.60
2023-05-14T04:03:02.002Z,11.60
2023-05-14T04:05:29.807Z,11.60
2023-05-14T04:07:58.138Z,11.70
2023-05-14T04:10:26.034Z,11.60
2023-05-14T04:12:55.058Z,11.70
2023-05-14T04:15:28.701Z,11.70
2023-05-14T04:17:58.281Z,11.70
2023-05-14T04:20:27.491Z,11.80
2023-05-14T04:22:57.360Z,11.80
2023-05-14T04:25:25.071Z,11.80
2023-05-14T04:27:52.776Z,11.80
2023-05-14T04:30:20.970Z,11.80
2023-05-14T04:32:48.874Z,11.80
2023-05-14T04:35:16.636Z,11.90
2023-05-14T04:37:45.631Z,12.00
2023-05-14T04:40:13.694Z,12.00
2023-05-14T04:42:41.377Z,12.10
2023-05-14T04:45:09.830Z,12.10
2023-05-14T04:47:37.720Z,12.10
2023-05-14T04:50:06.357Z,12.20
2023-05-14T04:52:34.459Z,12.20
2023-05-14T04:55:03.595Z,12.30
2023-05-14T04:57:31.320Z,12.30
2023-05-14T04:59:59.031Z,12.40
2023-05-14T05:02:28.211Z,12.40
2023-05-14T05:04:57.992Z,12.30
2023-05-14T05:07:25.760Z,12.40
2023-05-14T05:09:54.051Z,12.60
2023-05-14T05:12:24.972Z,12.60
2023-05-14T05:14:54.479Z,12.70
2023-05-14T05:17:22.220Z,12.80
2023-05-14T05:19:49.931Z,12.80
2023-05-14T05:22:17.917Z,12.90
2023-05-14T05:24:49.233Z,13.00
2023-05-14T05:27:23.325Z,13.10
2023-05-14T05:29:52.549Z,13.10
2023-05-14T05:32:20.285Z,13.20
2023-05-14T05:34:48.051Z,13.10
2023-05-14T05:37:15.758Z,13.20
2023-05-14T05:39:44.665Z,13.10
2023-05-14T05:42:12.459Z,13.30
2023-05-14T05:44:40.193Z,13.50
2023-05-14T05:47:09.888Z,13.80
2023-05-14T05:49:37.793Z,14.20
2023-05-14T05:52:05.909Z,14.50
2023-05-14T05:54:33.601Z,14.80
2023-05-14T05:57:01.688Z,14.50
2023-05-14T05:59:29.449Z,14.40
2023-05-14T06:01:57.370Z,14.40
2023-05-14T06:04:26.395Z,14.50
2023-05-14T06:06:54.052Z,15.10
2023-05-14T06:09:24.991Z,15.60
2023-05-14T06:11:56.316Z,15.40
2023-05-14T06:14:24.169Z,15.50
2023-05-14T06:16:52.268Z,16.70
2023-05-14T06:19:20.100Z,17.20
2023-05-14T06:21:51.439Z,18.20
2023-05-14T06:24:19.938Z,18.50
2023-05-14T06:26:48.703Z,20.00
2023-05-14T06:29:16.426Z,20.60
2023-05-14T06:31:44.286Z,21.40
2023-05-14T06:34:12.020Z,21.60
2023-05-14T06:36:40.087Z,22.80
2023-05-14T06:39:09.330Z,23.50
2023-05-14T06:41:37.013Z,23.90
2023-05-14T06:44:05.013Z,24.00
2023-05-14T06:46:32.769Z,24.10
2023-05-14T06:49:00.503Z,24.90
2023-05-14T06:51:28.271Z,25.10
2023-05-14T06:53:56.094Z,25.70
2023-05-14T06:56:26.507Z,26.00
2023-05-14T06:58:55.452Z,26.40
2023-05-14T07:01:23.891Z,26.60
2023-05-14T07:03:54.471Z,26.30
2023-05-14T07:06:24.326Z,26.80
2023-05-14T07:08:53.229Z,27.20
2023-05-14T07:11:21.960Z,27.60
2023-05-14T07:13:52.301Z,27.60
2023-05-14T07:16:22.336Z,27.80
2023-05-14T07:18:50.181Z,27.90
2023-05-14T07:21:19.179Z,28.30
2023-05-14T07:23:46.844Z,28.30
2023-05-14T07:26:15.727Z,28.60
2023-05-14T07:28:44.611Z,28.90
2023-05-14T07:31:13.637Z,29.20
2023-05-14T07:33:43.630Z,29.30
2023-05-14T07:36:14.983Z,29.60
2023-05-14T07:38:42.747Z,29.10
2023-05-14T07:41:12.147Z,29.20
2023-05-14T07:43:41.543Z,28.30
2023-05-14T07:46:10.281Z,28.30
2023-05-14T07:48:41.742Z,28.20
2023-05-14T07:51:09.529Z,28.20
2023-05-14T07:53:37.496Z,28.60
2023-05-14T07:56:06.973Z,28.20
2023-05-14T07:58:35.088Z,28.40
2023-05-14T08:01:06.815Z,28.60
2023-05-14T08:03:35.792Z,28.60
2023-05-14T08:06:05.292Z,29.30
2023-05-14T08:08:34.191Z,29.60
2023-05-14T08:11:04.182Z,30.10
2023-05-14T08:13:31.981Z,30.50
2023-05-14T08:15:59.690Z,31.00
2023-05-14T08:18:27.731Z,30.80
2023-05-14T08:20:55.984Z,31.00
2023-05-14T08:23:26.738Z,31.90
2023-05-14T08:25:56.747Z,31.90
2023-05-14T08:28:24.671Z,32.10
2023-05-14T08:30:52.433Z,31.80
2023-05-14T08:33:20.171Z,31.60
2023-05-14T08:35:47.900Z,31.40
2023-05-14T08:38:17.028Z,30.70
2023-05-14T08:40:49.600Z,30.90
2023-05-14T08:43:24.293Z,31.40
2023-05-14T08:45:57.953Z,31.40
2023-05-14T08:48:29.928Z,31.90
2023-05-14T08:50:58.292Z,31.80
2023-05-14T08:53:26.218Z,31.80
2023-05-14T08:55:55.621Z,30.00
2023-05-14T08:58:23.405Z,29.30
2023-05-14T09:00:51.152Z,28.40
2023-05-14T09:03:19.374Z,28.20
2023-05-14T09:05:48.754Z,28.00
2023-05-14T09:08:16.510Z,27.60
2023-05-14T09:10:44.404Z,27.90
2023-05-14T09:13:13.499Z,28.90
2023-05-14T09:15:41.523Z,29.70
2023-05-14T09:18:09.394Z,29.80
2023-05-14T09:20:37.768Z,29.30
2023-05-14T09:23:05.838Z,28.20
2023-05-14T09:25:33.805Z,28.00
2023-05-14T09:28:07.515Z,27.30
2023-05-14T09:30:37.013Z,26.70
2023-05-14T09:33:04.939Z,26.30
2023-05-14T09:35:33.336Z,26.40
2023-05-14T09:38:01.180Z,26.20
2023-05-14T09:40:29.357Z,26.20
2023-05-14T09:42:57.421Z,26.20
2023-05-14T09:45:25.156Z,26.40
2023-05-14T09:47:54.214Z,26.90
2023-05-14T09:50:22.684Z,27.30
2023-05-14T09:52:50.592Z,27.70
2023-05-14T09:55:22.552Z,28.90
2023-05-14T09:57:51.532Z,29.50
2023-05-14T10:00:19.963Z,30.10
2023-05-14T10:02:48.751Z,30.80
2023-05-14T10:05:19.013Z,31.10
2023-05-14T10:07:49.326Z,31.20
2023-05-14T10:10:23.519Z,30.30
2023-05-14T10:12:54.400Z,29.90
2023-05-14T10:15:35.770Z,29.30
2023-05-14T10:18:10.751Z,28.70
2023-05-14T10:20:41.917Z,28.40
2023-05-14T10:23:10.258Z,27.80
2023-05-14T10:25:38.773Z,27.40
2023-05-14T10:28:06.947Z,26.90
2023-05-14T10:30:34.628Z,26.50
2023-05-14T10:33:09.477Z,26.30
2023-05-14T10:36:00.489Z,25.90
2023-05-14T10:38:30.566Z,25.70
2023-05-14T10:41:00.737Z,25.10
2023-05-14T10:43:30.765Z,25.10
2023-05-14T10:46:00.749Z,25.20
2023-05-14T10:48:28.588Z,25.20
2023-05-14T10:50:58.779Z,25.20
2023-05-14T10:53:34.285Z,25.50
2023-05-14T10:56:05.787Z,25.80
2023-05-14T10:58:36.959Z,27.00
2023-05-14T11:01:07.410Z,28.80
2023-05-14T11:03:43.654Z,30.10
2023-05-14T11:06:14.859Z,30.70
2023-05-14T11:08:43.017Z,30.10
2023-05-14T11:11:11.170Z,29.90
2023-05-14T11:13:39.576Z,29.90
2023-05-14T11:18:41.568Z,30.50
2023-05-14T11:21:09.466Z,29.90
2023-05-14T11:23:38.678Z,29.20
2023-05-14T11:26:08.484Z,28.00
2023-05-14T11:28:36.914Z,27.60
2023-05-14T11:31:05.820Z,27.00
2023-05-14T11:33:35.119Z,26.50
2023-05-14T11:36:03.423Z,26.30
2023-05-14T11:38:31.136Z,26.20
2023-05-14T11:41:01.289Z,26.10
2023-05-14T11:43:29.540Z,25.60
2023-05-14T11:45:57.502Z,25.70
2023-05-14T11:48:25.513Z,25.60
2023-05-14T11:50:57.565Z,26.20
2023-05-14T11:53:28.718Z,27.10
2023-05-14T11:56:00.287Z,28.50
2023-05-14T11:58:28.059Z,29.40
2023-05-14T12:00:58.581Z,29.30
2023-05-14T12:03:29.238Z,29.50
2023-05-14T12:05:59.776Z,29.10
2023-05-14T12:08:30.659Z,28.50
2023-05-14T12:11:01.850Z,27.60
2023-05-14T12:13:32.716Z,26.50
2023-05-14T12:16:02.017Z,26.10
2023-05-14T12:18:34.377Z,25.80
2023-05-14T12:21:07.736Z,25.50
2023-05-14T12:23:37.081Z,26.20
2023-05-14T12:26:08.563Z,27.20
2023-05-14T12:28:43.078Z,27.00
2023-05-14T12:31:13.804Z,26.80
2023-05-14T12:33:41.912Z,26.30
2023-05-14T12:36:21.138Z,25.80
2023-05-14T12:38:51.732Z,25.50
2023-05-14T12:41:21.197Z,25.20
2023-05-14T12:43:50.725Z,24.90
2023-05-14T12:46:18.573Z,24.50
2023-05-14T12:48:51.755Z,24.10
2023-05-14T12:51:23.252Z,24.00
2023-05-14T12:53:54.025Z,23.80
2023-05-14T12:56:28.110Z,23.90
2023-05-14T12:58:57.153Z,23.80
2023-05-14T13:01:25.649Z,23.50
2023-05-14T13:03:53.551Z,23.30
2023-05-14T13:06:21.264Z,23.20
2023-05-14T13:08:50.691Z,23.00
2023-05-14T13:11:19.311Z,22.90
2023-05-14T13:13:48.436Z,22.90
2023-05-14T13:16:19.150Z,23.10
2023-05-14T13:18:49.266Z,23.20
2023-05-14T13:21:17.114Z,23.10
2023-05-14T13:23:44.859Z,22.90
2023-05-14T13:26:14.016Z,22.70
2023-05-14T13:28:44.607Z,22.50
2023-05-14T13:31:15.244Z,22.30
2023-05-14T13:33:46.522Z,22.30
2023-05-14T13:36:15.709Z,22.30
2023-05-14T13:38:44.672Z,22.40
2023-05-14T13:41:13.035Z,22.30
2023-05-14T13:43:41.971Z,22.40
2023-05-14T13:46:13.430Z,22.60
2023-05-14T13:48:41.964Z,22.80
2023-05-14T13:51:09.703Z,23.00
2023-05-14T13:53:37.431Z,22.90
2023-05-14T13:56:06.349Z,22.90
2023-05-14T13:58:34.116Z,22.80
2023-05-14T14:01:02.453Z,22.80
2023-05-14T14:03:32.734Z,22.80
2023-05-14T14:06:03.378Z,23.00
2023-05-14T14:08:31.201Z,23.10
2023-05-14T14:11:02.208Z,22.80
2023-05-14T14:13:31.143Z,22.90
2023-05-14T14:15:58.939Z,22.90
2023-05-14T14:18:28.573Z,22.60
2023-05-14T14:20:58.290Z,22.50
2023-05-14T14:23:26.306Z,22.50
2023-05-14T14:25:54.340Z,22.30
2023-05-14T14:28:22.066Z,22.30
2023-05-14T14:30:49.779Z,22.20
2023-05-14T14:33:17.584Z,22.10
2023-05-14T14:35:45.475Z,22.30
2023-05-14T14:38:16.512Z,22.50
2023-05-14T14:40:47.417Z,22.60
2023-05-14T14:43:15.154Z,22.60
2023-05-14T14:45:46.810Z,22.60
2023-05-14T14:48:24.980Z,22.80
2023-05-14T14:50:54.007Z,23.00
2023-05-14T14:53:23.885Z,23.00
2023-05-14T14:55:51.942Z,23.00
2023-05-14T14:58:20.585Z,23.10
2023-05-14T15:00:48.524Z,23.00
2023-05-14T15:03:16.536Z,22.90
2023-05-14T15:05:45.814Z,23.10
2023-05-14T15:08:13.601Z,23.10
2023-05-14T15:10:42.684Z,23.10
2023-05-14T15:13:14.386Z,23.10
2023-05-14T15:15:42.223Z,23.30
2023-05-14T15:18:12.305Z,23.40
2023-05-14T15:20:40.611Z,23.50
2023-05-14T15:23:08.564Z,23.60
2023-05-14T15:25:37.067Z,23.70
2023-05-14T15:28:06.591Z,23.70
2023-05-14T15:30:34.464Z,23.60
2023-05-14T15:33:02.410Z,23.70
2023-05-14T15:35:31.332Z,23.50
2023-05-14T15:38:02.180Z,23.40
2023-05-14T15:40:30.376Z,23.20
2023-05-14T15:42:59.976Z,23.50
2023-05-14T15:45:30.688Z,23.40
2023-05-14T15:47:58.520Z,23.30
2023-05-14T15:50:29.351Z,23.10
2023-05-14T15:52:57.151Z,22.90
2023-05-14T15:55:25.604Z,22.80
2023-05-14T15:57:53.535Z,22.70
2023-05-14T16:00:21.783Z,22.30
2023-05-14T16:02:51.388Z,22.00
2023-05-14T16:05:19.248Z,21.80
2023-05-14T16:07:46.994Z,21.70
2023-05-14T16:10:16.099Z,21.50
2023-05-14T16:12:43.923Z,21.60
2023-05-14T16:15:13.184Z,21.50
2023-05-14T16:17:41.888Z,21.50
2023-05-14T16:20:13.496Z,21.70
2023-05-14T16:22:42.896Z,21.70
2023-05-14T16:25:10.789Z,21.60
2023-05-14T16:27:38.559Z,21.80
2023-05-14T16:30:07.363Z,22.00
2023-05-14T16:32:35.118Z,22.10
2023-05-14T16:35:03.127Z,22.20
2023-05-14T16:37:32.408Z,22.10
2023-05-14T16:40:00.193Z,22.10
2023-05-14T16:42:27.861Z,22.00
2023-05-14T16:44:55.640Z,22.00
2023-05-14T16:47:23.385Z,21.90
2023-05-14T16:49:52.242Z,21.80
2023-05-14T16:52:19.890Z,21.60
2023-05-14T16:54:48.954Z,21.40
2023-05-14T16:57:16.652Z,21.30
2023-05-14T16:59:44.423Z,21.40
2023-05-14T17:02:12.138Z,21.20
2023-05-14T17:04:42.207Z,21.10
2023-05-14T17:07:10.323Z,21.00
2023-05-14T17:09:38.564Z,21.00
2023-05-14T17:12:08.248Z,20.80
2023-05-14T17:14:35.985Z,20.70
2023-05-14T17:17:04.513Z,20.70
2023-05-14T17:19:32.297Z,20.70
2023-05-14T17:22:00.424Z,20.60
2023-05-14T17:24:28.206Z,20.50
2023-05-14T17:26:57.640Z,20.40
2023-05-14T17:29:30.139Z,20.30
2023-05-14T17:31:58.576Z,20.20
2023-05-14T17:34:28.001Z,20.10
2023-05-14T17:36:57.067Z,20.00
2023-05-14T17:39:24.813Z,20.00
2023-05-14T17:41:52.778Z,20.00
2023-05-14T17:44:20.536Z,19.90
2023-05-14T17:46:50.334Z,19.80
2023-05-14T17:49:19.325Z,19.80
2023-05-14T17:51:47.052Z,19.80
2023-05-14T17:54:16.144Z,19.70
2023-05-14T17:56:44.178Z,19.70
2023-05-14T17:59:12.744Z,19.60
2023-05-14T18:01:41.216Z,19.60
2023-05-14T18:04:10.805Z,19.50
2023-05-14T18:06:38.900Z,19.50
2023-05-14T18:09:07.623Z,19.50
2023-05-14T18:11:35.544Z,19.40
2023-05-14T18:14:03.655Z,19.30
2023-05-14T18:16:33.206Z,19.30
2023-05-14T18:19:03.438Z,19.30
2023-05-14T18:21:34.339Z,19.20
2023-05-14T18:24:04.180Z,19.20
2023-05-14T18:26:34.221Z,19.10
2023-05-14T18:29:08.244Z,18.90
2023-05-14T18:31:36.051Z,18.80
2023-05-14T18:34:03.967Z,18.70
2023-05-14T18:36:33.550Z,18.60
2023-05-14T18:39:02.660Z,18.50
2023-05-14T18:41:33.051Z,18.40
2023-05-14T18:44:04.815Z,18.30
2023-05-14T18:46:36.469Z,18.20
2023-05-14T18:49:04.625Z,18.00
2023-05-14T18:51:35.023Z,17.90
2023-05-14T18:54:03.700Z,17.80
2023-05-14T18:56:31.744Z,17.60
2023-05-14T18:59:00.783Z,17.40
2023-05-14T19:01:28.873Z,17.30
2023-05-14T19:03:58.999Z,17.20
2023-05-14T19:06:26.815Z,17.10
2023-05-14T19:08:56.834Z,17.00
2023-05-14T19:11:24.666Z,17.00
2023-05-14T19:13:56.609Z,17.00
2023-05-14T19:16:25.975Z,17.00
2023-05-14T19:18:54.099Z,16.90
2023-05-14T19:21:23.415Z,16.80
2023-05-14T19:23:53.999Z,16.70
2023-05-14T19:26:28.377Z,16.70
2023-05-14T19:28:58.553Z,16.60
2023-05-14T19:31:29.412Z,16.60
2023-05-14T19:34:00.860Z,16.30
2023-05-14T19:36:32.705Z,16.20
2023-05-14T19:39:00.548Z,16.30
2023-05-14T19:41:29.809Z,16.00
2023-05-14T19:43:57.497Z,16.00
2023-05-14T19:46:25.460Z,16.00
2023-05-14T19:48:53.371Z,16.00
2023-05-14T19:51:21.533Z,16.00
2023-05-14T19:53:49.790Z,15.80
2023-05-14T19:56:17.584Z,15.70
2023-05-14T19:58:46.621Z,15.80
2023-05-14T20:01:14.449Z,15.70
2023-05-14T20:03:42.311Z,15.60
2023-05-14T20:06:10.638Z,15.50
2023-05-14T20:08:38.481Z,15.50
2023-05-14T20:11:09.571Z,15.50
2023-05-14T20:13:38.139Z,15.50
2023-05-14T20:16:09.554Z,15.60
2023-05-14T20:18:37.392Z,15.60
2023-05-14T20:21:08.011Z,15.60
2023-05-14T20:23:36.058Z,15.60
2023-05-14T20:26:04.054Z,15.60
2023-05-14T20:28:32.188Z,15.30
2023-05-14T20:31:01.145Z,15.30
2023-05-14T20:33:30.469Z,15.30
2023-05-14T20:35:58.306Z,15.20
2023-05-14T20:38:29.212Z,15.20
2023-05-14T20:40:56.932Z,15.10
2023-05-14T20:43:24.809Z,15.00
2023-05-14T20:45:52.524Z,15.00
2023-05-14T20:48:21.374Z,14.80
2023-05-14T20:50:50.378Z,14.70
2023-05-14T20:53:18.129Z,14.60
2023-05-14T20:55:45.855Z,14.50
2023-05-14T20:58:13.509Z,14.40
2023-05-14T21:00:41.348Z,14.40
2023-05-14T21:03:09.289Z,14.30
2023-05-14T21:05:37.107Z,14.30
2023-05-14T21:08:06.287Z,14.30
2023-05-14T21:10:34.003Z,14.30
2023-05-14T21:13:01.764Z,14.30
2023-05-14T21:15:30.498Z,14.30
2023-05-14T21:17:58.323Z,14.20
2023-05-14T21:20:26.121Z,14.10
2023-05-14T21:22:53.892Z,14.00
2023-05-14T21:25:23.153Z,13.90
2023-05-14T21:27:51.212Z,13.90
2023-05-14T21:30:18.963Z,13.90
2023-05-14T21:32:47.355Z,13.90
2023-05-14T21:35:15.301Z,13.90
2023-05-14T21:37:45.599Z,13.90
2023-05-14T21:40:13.820Z,13.80
2023-05-14T21:42:42.928Z,13.70
2023-05-14T21:45:11.210Z,13.60
2023-05-14T21:47:39.196Z,13.50
2023-05-14T21:50:07.574Z,13.50
2023-05-14T21:52:35.673Z,13.40
2023-05-14T21:55:03.330Z,13.30
2023-05-14T21:57:34.296Z,13.30
2023-05-14T22:00:04.681Z,13.20
2023-05-14T22:02:46.677Z,12.80
2023-05-14T22:05:14.510Z,12.80
2023-05-14T22:07:42.195Z,12.80
2023-05-14T22:10:10.741Z,12.80
2023-05-14T22:12:38.439Z,12.80
2023-05-14T22:15:07.162Z,12.80
2023-05-14T22:17:35.030Z,12.80
2023-05-14T22:20:06.463Z,12.70
2023-05-14T22:22:34.929Z,12.60
2023-05-14T22:25:02.712Z,12.70
2023-05-14T22:27:31.583Z,12.70
2023-05-14T22:29:59.887Z,12.70
2023-05-14T22:32:27.759Z,12.70
2023-05-14T22:34:55.723Z,12.80
2023-05-14T22:37:24.773Z,12.90
2023-05-14T22:39:52.470Z,12.90
2023-05-14T22:42:21.288Z,12.80
2023-05-14T22:44:48.969Z,12.80
2023-05-14T22:47:16.915Z,12.70
2023-05-14T22:49:44.620Z,12.60
2023-05-14T22:52:12.292Z,12.60
2023-05-14T22:54:41.282Z,12.60
2023-05-14T22:57:09.160Z,12.50
2023-05-14T22:59:36.892Z,12.50
2023-05-14T23:02:04.807Z,12.50
2023-05-14T23:04:32.566Z,12.40
2023-05-14T23:07:00.453Z,12.50
2023-05-14T23:09:28.329Z,12.50
2023-05-14T23:11:57.427Z,12.50
2023-05-14T23:14:25.486Z,12.40
2023-05-14T23:16:53.267Z,12.40
2023-05-14T23:19:22.461Z,12.30
2023-05-14T23:21:50.314Z,12.30
2023-05-14T23:24:18.018Z,12.30
2023-05-14T23:26:45.814Z,12.30
2023-05-14T23:29:14.847Z,12.30
2023-05-14T23:31:43.477Z,12.40
2023-05-14T23:34:12.143Z,12.40
2023-05-14T23:36:40.433Z,12.40
2023-05-14T23:39:10.205Z,12.40
2023-05-14T23:41:38.874Z,12.40
2023-05-14T23:44:07.168Z,12.40
2023-05-14T23:46:36.277Z,12.40
2023-05-14T23:49:04.008Z,12.20
2023-05-14T23:51:31.742Z,12.10
2023-05-14T23:53:59.434Z,12.00
2023-05-14T23:56:29.225Z,12.00
2023-05-14T23:58:57.236Z,12.00
